createdAt,value
2019-02-15T00:02:14.230Z,1.70
2019-02-15T00:04:54.295Z,1.70
2019-02-15T00:07:34.370Z,1.80
2019-02-15T00:10:14.504Z,1.80
2019-02-15T00:12:54.272Z,1.80
2019-02-15T00:15:34.366Z,1.70
2019-02-15T00:18:33.953Z,1.60
2019-02-15T00:21:19.610Z,1.50
2019-02-15T00:23:59.432Z,1.50
2019-02-15T00:26:39.323Z,1.50
2019-02-15T00:29:19.129Z,1.40
2019-02-15T00:31:59.132Z,1.40
2019-02-15T00:34:39.050Z,1.40
2019-02-15T00:37:18.829Z,1.40
2019-02-15T00:39:58.944Z,1.40
2019-02-15T00:42:38.739Z,1.40
2019-02-15T00:45:21.961Z,1.20
2019-02-15T00:48:05.667Z,1.10
2019-02-15T00:51:08.318Z,1.10
2019-02-15T00:54:07.963Z,1.20
2019-02-15T00:57:07.271Z,1.10
2019-02-15T01:00:06.287Z,0.90
2019-02-15T01:03:03.620Z,0.70
2019-02-15T01:08:32.181Z,0.50
2019-02-15T01:11:17.435Z,0.40
2019-02-15T01:13:57.397Z,0.40
2019-02-15T01:16:40.784Z,0.30
2019-02-15T01:19:20.412Z,0.50
2019-02-15T01:22:00.593Z,0.40
2019-02-15T01:24:40.674Z,0.40
2019-02-15T01:27:26.861Z,0.30
2019-02-15T01:30:29.165Z,0.20
2019-02-15T01:33:35.206Z,0.10
2019-02-15T01:36:29.205Z,0.10
2019-02-15T01:39:28.643Z,0.10
2019-02-15T01:42:28.123Z,0.10
2019-02-15T01:45:27.393Z,0.00
2019-02-15T01:48:07.036Z,0.10
2019-02-15T01:50:47.255Z,0.10
2019-02-15T01:53:27.271Z,0.20
2019-02-15T01:56:07.403Z,0.20
2019-02-15T01:58:46.960Z,0.30
2019-02-15T02:01:27.684Z,0.30
2019-02-15T02:04:08.439Z,0.30
2019-02-15T02:06:48.229Z,0.10
2019-02-15T02:09:28.267Z,0.10
2019-02-15T02:12:08.726Z,0.10
2019-02-15T02:14:48.340Z,0.10
2019-02-15T02:17:28.393Z,0.00
2019-02-15T02:20:09.523Z,-0.10
2019-02-15T02:22:49.290Z,0.00
2019-02-15T02:25:29.353Z,0.00
2019-02-15T02:28:09.444Z,-0.10
2019-02-15T02:30:50.160Z,-0.20
2019-02-15T02:33:30.074Z,-0.30
2019-02-15T02:36:10.143Z,-0.40
2019-02-15T02:38:51.257Z,-0.30
2019-02-15T02:41:31.412Z,-0.40
2019-02-15T02:44:11.594Z,-0.20
2019-02-15T02:46:51.415Z,-0.20
2019-02-15T02:49:31.439Z,-0.30
2019-02-15T02:52:11.638Z,-0.40
2019-02-15T02:54:51.531Z,-0.40
2019-02-15T02:57:31.470Z,-0.40
2019-02-15T03:00:09.445Z,-0.30
2019-02-15T03:02:57.623Z,-0.20
2019-02-15T03:05:37.846Z,-0.20
2019-02-15T03:08:17.893Z,-0.10
2019-02-15T03:10:58.029Z,-0.20
2019-02-15T03:13:37.927Z,-0.30
2019-02-15T03:16:18.016Z,-0.30
2019-02-15T03:18:58.369Z,-0.40
2019-02-15T03:21:38.365Z,-0.40
2019-02-15T03:24:18.868Z,-0.40
2019-02-15T03:26:58.977Z,-0.40
2019-02-15T03:29:39.647Z,-0.40
2019-02-15T03:32:19.282Z,-0.40
2019-02-15T03:34:59.686Z,-0.40
2019-02-15T03:37:59.005Z,-0.40
2019-02-15T03:43:44.185Z,-0.20
2019-02-15T03:46:23.988Z,-0.30
2019-02-15T03:49:04.210Z,-0.30
2019-02-15T03:51:43.878Z,-0.40
2019-02-15T03:54:23.887Z,-0.40
2019-02-15T03:57:03.908Z,-0.50
2019-02-15T03:59:44.041Z,-0.50
2019-02-15T04:02:23.651Z,-0.50
2019-02-15T04:05:04.110Z,-0.50
2019-02-15T04:07:44.043Z,-0.30
2019-02-15T04:10:24.117Z,-0.20
2019-02-15T04:13:03.874Z,-0.20
2019-02-15T04:15:44.186Z,-0.20
2019-02-15T04:18:24.288Z,-0.20
2019-02-15T04:21:04.067Z,-0.20
2019-02-15T04:23:44.824Z,-0.20
2019-02-15T04:26:24.563Z,-0.20
2019-02-15T04:29:04.457Z,-0.30
2019-02-15T04:31:48.012Z,-0.20
2019-02-15T04:34:28.462Z,-0.10
2019-02-15T04:37:08.645Z,-0.10
2019-02-15T04:39:49.273Z,0.00
2019-02-15T04:42:28.982Z,0.10
2019-02-15T04:45:08.888Z,0.20
2019-02-15T04:47:49.192Z,0.30
2019-02-15T04:50:29.108Z,0.30
2019-02-15T04:53:09.748Z,0.20
2019-02-15T04:55:49.789Z,0.10
2019-02-15T04:58:30.259Z,0.00
2019-02-15T05:01:09.911Z,-0.10
2019-02-15T05:03:50.561Z,-0.10
2019-02-15T05:06:30.158Z,-0.20
2019-02-15T05:09:10.183Z,-0.20
2019-02-15T05:11:50.489Z,-0.20
2019-02-15T05:14:30.551Z,-0.30
2019-02-15T05:17:10.767Z,-0.20
2019-02-15T05:19:51.242Z,-0.20
2019-02-15T05:25:10.809Z,-0.20
2019-02-15T05:27:50.945Z,-0.10
2019-02-15T05:30:31.038Z,-0.10
2019-02-15T05:33:11.299Z,0.00
2019-02-15T05:35:51.273Z,0.10
2019-02-15T05:38:31.998Z,0.30
2019-02-15T05:41:12.390Z,0.40
2019-02-15T05:43:52.576Z,0.50
2019-02-15T05:46:32.469Z,0.50
2019-02-15T05:49:12.451Z,0.50
2019-02-15T05:51:52.496Z,0.50
2019-02-15T05:54:32.663Z,0.40
2019-02-15T05:57:12.384Z,0.40
2019-02-15T05:59:52.889Z,0.40
2019-02-15T06:02:32.871Z,0.50
2019-02-15T06:05:13.035Z,0.40
2019-02-15T06:07:52.755Z,0.40
2019-02-15T06:10:32.850Z,0.20
2019-02-15T06:13:12.773Z,0.10
2019-02-15T06:15:53.374Z,0.00
2019-02-15T06:18:33.022Z,0.00
2019-02-15T06:21:12.978Z,0.10
2019-02-15T06:23:53.232Z,0.30
2019-02-15T06:26:33.091Z,0.40
2019-02-15T06:31:57.014Z,0.50
2019-02-15T06:34:37.337Z,0.40
2019-02-15T06:37:17.725Z,0.40
2019-02-15T06:39:57.556Z,0.40
2019-02-15T06:42:38.218Z,0.40
2019-02-15T06:45:24.320Z,0.50
2019-02-15T06:48:00.267Z,0.60
2019-02-15T06:50:40.373Z,0.50
2019-02-15T06:53:21.444Z,0.60
2019-02-15T06:55:49.620Z,0.70
2019-02-15T06:59:16.412Z,0.90
2019-02-15T07:05:25.193Z,1.50
2019-02-15T07:08:06.051Z,1.80
2019-02-15T07:16:31.319Z,2.70
2019-02-15T07:19:11.424Z,3.00
2019-02-15T07:21:51.628Z,3.50
2019-02-15T07:24:36.529Z,3.80
2019-02-15T07:27:16.979Z,4.30
2019-02-15T07:29:56.543Z,4.70
2019-02-15T07:32:36.333Z,5.10
2019-02-15T07:35:16.504Z,5.50
2019-02-15T07:37:56.622Z,6.10
2019-02-15T07:40:36.711Z,6.50
2019-02-15T07:43:17.344Z,6.80
2019-02-15T07:45:57.442Z,7.30
2019-02-15T07:48:37.355Z,7.80
2019-02-15T07:51:17.114Z,8.50
2019-02-15T07:53:58.570Z,9.10
2019-02-15T07:56:38.139Z,9.50
2019-02-15T07:59:18.377Z,9.70
2019-02-15T08:02:01.758Z,9.90
2019-02-15T08:04:40.174Z,10.10
2019-02-15T08:07:19.771Z,10.50
2019-02-15T08:09:59.849Z,10.90
2019-02-15T08:12:39.977Z,11.40
2019-02-15T08:15:19.966Z,12.00
2019-02-15T08:17:59.684Z,12.60
2019-02-15T08:20:39.626Z,13.20
2019-02-15T08:23:19.453Z,13.80
2019-02-15T08:25:59.434Z,14.40
2019-02-15T08:28:39.935Z,14.60
2019-02-15T08:31:19.487Z,14.70
2019-02-15T08:33:59.664Z,15.00
2019-02-15T08:36:39.532Z,15.40
2019-02-15T08:42:03.827Z,16.40
2019-02-15T08:44:41.542Z,16.90
2019-02-15T08:47:21.138Z,18.00
2019-02-15T08:50:01.171Z,19.00
2019-02-15T08:52:41.173Z,19.50
2019-02-15T08:55:20.986Z,20.20
2019-02-15T08:58:04.561Z,20.50
2019-02-15T09:00:44.995Z,20.80
2019-02-15T09:03:25.111Z,21.30
2019-02-15T09:06:05.135Z,21.40
2019-02-15T09:08:45.553Z,21.90
2019-02-15T09:11:25.447Z,22.00
2019-02-15T09:14:05.537Z,22.20
2019-02-15T09:16:45.239Z,22.50
2019-02-15T09:19:25.043Z,23.00
2019-02-15T09:22:05.011Z,23.20
2019-02-15T09:24:44.967Z,23.20
2019-02-15T09:27:30.080Z,23.30
2019-02-15T09:30:10.017Z,23.50
2019-02-15T09:32:50.239Z,23.70
2019-02-15T09:35:30.049Z,23.10
2019-02-15T09:38:10.312Z,22.20
2019-02-15T09:40:50.685Z,22.10
2019-02-15T09:43:30.582Z,21.90
2019-02-15T09:46:19.243Z,21.80
2019-02-15T09:48:52.329Z,21.60
2019-02-15T09:51:32.245Z,21.80
2019-02-15T09:54:12.356Z,22.30
2019-02-15T09:56:52.558Z,22.60
2019-02-15T09:59:32.971Z,21.40
2019-02-15T10:02:12.623Z,21.00
2019-02-15T10:04:52.695Z,20.20
2019-02-15T10:07:33.144Z,20.20
2019-02-15T10:10:13.206Z,19.50
2019-02-15T10:12:53.287Z,17.90
2019-02-15T10:15:33.383Z,17.40
2019-02-15T10:18:13.941Z,17.20
2019-02-15T10:20:54.024Z,17.10
2019-02-15T10:23:33.734Z,17.50
2019-02-15T10:26:14.050Z,17.90
2019-02-15T10:28:58.177Z,18.30
2019-02-15T10:31:38.107Z,18.80
2019-02-15T10:34:18.325Z,19.40
2019-02-15T10:36:59.050Z,19.50
2019-02-15T10:39:44.805Z,19.20
2019-02-15T10:42:17.391Z,19.80
2019-02-15T10:45:04.726Z,19.90
2019-02-15T10:47:44.969Z,20.20
2019-02-15T10:50:25.223Z,20.50
2019-02-15T10:53:05.260Z,20.90
2019-02-15T10:55:45.448Z,21.50
2019-02-15T11:01:05.784Z,23.50
2019-02-15T11:03:50.197Z,24.50
2019-02-15T11:06:30.325Z,23.60
2019-02-15T11:11:50.652Z,25.10
2019-02-15T11:14:30.520Z,25.80
2019-02-15T11:17:12.074Z,26.90
2019-02-15T11:19:52.399Z,28.10
2019-02-15T11:22:51.618Z,29.20
2019-02-15T11:25:31.504Z,29.60
2019-02-15T11:28:12.582Z,30.10
2019-02-15T11:30:52.121Z,30.50
2019-02-15T11:33:32.387Z,30.80
2019-02-15T11:36:12.511Z,30.20
2019-02-15T11:38:52.736Z,30.60
2019-02-15T11:41:32.714Z,31.10
2019-02-15T11:44:16.435Z,31.10
2019-02-15T11:46:56.717Z,29.70
2019-02-15T11:49:43.422Z,28.70
2019-02-15T11:52:23.291Z,29.30
2019-02-15T11:55:03.202Z,30.00
2019-02-15T11:57:43.302Z,30.60
2019-02-15T12:00:27.995Z,31.50
2019-02-15T12:03:08.450Z,32.10
2019-02-15T12:05:48.786Z,32.50
2019-02-15T12:08:28.566Z,32.50
2019-02-15T12:11:08.668Z,32.50
2019-02-15T12:13:48.529Z,32.40
2019-02-15T12:16:29.568Z,32.80
2019-02-15T12:19:09.544Z,32.20
2019-02-15T12:24:29.407Z,32.10
2019-02-15T12:27:09.609Z,32.50
2019-02-15T12:29:49.532Z,32.00
2019-02-15T12:32:29.631Z,32.50
2019-02-15T12:35:09.424Z,32.50
2019-02-15T12:37:49.724Z,32.70
2019-02-15T12:40:29.793Z,32.80
2019-02-15T12:43:09.990Z,32.90
2019-02-15T12:45:50.262Z,33.10
2019-02-15T12:48:30.725Z,33.70
2019-02-15T12:53:50.572Z,34.40
2019-02-15T12:56:30.885Z,34.60
2019-02-15T12:59:10.794Z,34.30
2019-02-15T13:01:50.916Z,34.10
2019-02-15T13:04:30.692Z,34.30
2019-02-15T13:07:10.889Z,34.00
2019-02-15T13:09:51.994Z,33.40
2019-02-15T13:12:39.152Z,33.20
2019-02-15T13:15:25.844Z,33.90
2019-02-15T13:18:06.044Z,33.90
2019-02-15T13:20:46.498Z,33.90
2019-02-15T13:23:25.869Z,33.50
2019-02-15T13:26:08.482Z,33.70
2019-02-15T13:28:48.089Z,33.90
2019-02-15T13:31:27.835Z,34.00
2019-02-15T13:34:07.753Z,34.00
2019-02-15T13:36:47.557Z,31.60
2019-02-15T13:39:28.002Z,30.50
2019-02-15T13:42:07.796Z,28.90
2019-02-15T13:44:48.660Z,29.50
2019-02-15T13:47:34.722Z,29.80
2019-02-15T13:50:10.406Z,28.30
2019-02-15T13:52:50.256Z,27.00
2019-02-15T13:55:30.473Z,27.20
2019-02-15T13:58:10.480Z,26.60
2019-02-15T14:00:50.635Z,26.40
2019-02-15T14:03:32.751Z,25.90
2019-02-15T14:06:12.691Z,25.50
2019-02-15T14:08:53.003Z,25.00
2019-02-15T14:11:32.723Z,25.30
2019-02-15T14:14:13.109Z,25.40
2019-02-15T14:16:52.844Z,26.00
2019-02-15T14:19:33.214Z,25.40
2019-02-15T14:22:13.237Z,25.20
2019-02-15T14:24:53.354Z,24.60
2019-02-15T14:27:33.370Z,25.00
2019-02-15T14:30:13.666Z,25.40
2019-02-15T14:32:53.548Z,24.80
2019-02-15T14:35:33.262Z,25.40
2019-02-15T14:38:13.445Z,25.80
2019-02-15T14:40:53.669Z,26.20
2019-02-15T14:43:33.556Z,25.90
2019-02-15T14:46:13.486Z,26.00
2019-02-15T14:48:53.604Z,25.60
2019-02-15T14:51:33.358Z,25.20
2019-02-15T14:54:13.435Z,25.10
2019-02-15T14:56:53.865Z,24.70
2019-02-15T14:59:33.608Z,23.90
2019-02-15T15:02:13.268Z,24.20
2019-02-15T15:04:53.306Z,24.20
2019-02-15T15:07:33.130Z,23.70
2019-02-15T15:10:12.905Z,23.50
2019-02-15T15:12:53.428Z,23.70
2019-02-15T15:15:34.066Z,23.70
2019-02-15T15:18:13.871Z,23.90
2019-02-15T15:20:54.839Z,23.40
2019-02-15T15:23:34.860Z,23.00
2019-02-15T15:26:14.881Z,22.50
2019-02-15T15:28:55.132Z,22.70
2019-02-15T15:31:34.990Z,23.00
2019-02-15T15:34:15.147Z,22.90
2019-02-15T15:36:54.646Z,22.70
2019-02-15T15:39:34.731Z,22.60
2019-02-15T15:42:15.153Z,22.20
2019-02-15T15:44:55.350Z,21.90
2019-02-15T15:47:35.157Z,22.10
2019-02-15T15:50:15.559Z,21.90
2019-02-15T15:52:55.271Z,21.80
2019-02-15T15:55:35.212Z,21.90
2019-02-15T15:58:15.029Z,21.70
2019-02-15T16:00:55.726Z,21.40
2019-02-15T16:03:35.952Z,20.80
2019-02-15T16:06:24.170Z,19.90
2019-02-15T16:08:58.465Z,18.80
2019-02-15T16:11:38.499Z,18.10
2019-02-15T16:14:18.564Z,17.50
2019-02-15T16:16:58.283Z,17.00
2019-02-15T16:19:40.551Z,16.50
2019-02-15T16:22:20.190Z,16.10
2019-02-15T16:25:00.458Z,15.70
2019-02-15T16:27:27.964Z,15.30
2019-02-15T16:30:14.948Z,14.90
2019-02-15T16:32:56.014Z,14.70
2019-02-15T16:35:39.144Z,14.40
2019-02-15T16:38:19.311Z,14.00
2019-02-15T16:40:59.145Z,13.70
2019-02-15T16:43:39.266Z,13.40
2019-02-15T16:46:19.242Z,13.10
2019-02-15T16:48:59.162Z,12.90
2019-02-15T16:51:38.621Z,12.60
2019-02-15T16:54:19.239Z,12.40
2019-02-15T16:56:58.855Z,12.10
2019-02-15T16:59:38.477Z,11.80
2019-02-15T17:02:16.491Z,11.60
2019-02-15T17:05:03.734Z,11.40
2019-02-15T17:07:46.034Z,11.20
2019-02-15T17:10:25.783Z,10.90
2019-02-15T17:13:05.720Z,10.70
2019-02-15T17:15:45.786Z,10.60
2019-02-15T17:18:25.628Z,10.40
2019-02-15T17:21:05.988Z,10.30
2019-02-15T17:23:46.795Z,10.20
2019-02-15T17:26:26.501Z,10.00
2019-02-15T17:29:06.902Z,9.90
2019-02-15T17:31:46.684Z,9.80
2019-02-15T17:34:26.878Z,9.70
2019-02-15T17:37:06.965Z,9.70
2019-02-15T17:39:46.809Z,9.60
2019-02-15T17:42:26.947Z,9.60
2019-02-15T17:45:06.738Z,9.50
2019-02-15T17:47:47.171Z,9.40
2019-02-15T17:50:30.743Z,9.30
2019-02-15T17:53:10.245Z,9.20
2019-02-15T17:55:50.468Z,9.10
2019-02-15T17:58:30.721Z,9.00
2019-02-15T18:01:10.820Z,8.80
2019-02-15T18:03:50.671Z,8.80
2019-02-15T18:06:30.697Z,8.70
2019-02-15T18:09:10.473Z,8.60
2019-02-15T18:11:52.334Z,8.50
2019-02-15T18:14:32.444Z,8.50
2019-02-15T18:17:12.520Z,8.40
2019-02-15T18:19:52.291Z,8.30
2019-02-15T18:22:32.714Z,8.30
2019-02-15T18:25:12.545Z,8.20
2019-02-15T18:27:52.850Z,8.20
2019-02-15T18:30:32.719Z,8.20
2019-02-15T18:33:12.103Z,8.20
2019-02-15T18:35:52.239Z,8.20
2019-02-15T18:38:32.488Z,8.30
2019-02-15T18:41:13.776Z,8.30
2019-02-15T18:43:54.687Z,8.20
2019-02-15T18:46:35.111Z,8.20
2019-02-15T18:49:19.433Z,8.20
2019-02-15T18:51:57.202Z,8.20
2019-02-15T18:54:37.435Z,8.20
2019-02-15T18:57:17.277Z,8.20
2019-02-15T18:59:57.347Z,8.20
2019-02-15T19:02:37.229Z,8.10
2019-02-15T19:05:17.551Z,8.00
2019-02-15T19:07:57.558Z,8.00
2019-02-15T19:10:37.597Z,7.90
2019-02-15T19:13:17.899Z,7.90
2019-02-15T19:15:57.776Z,7.80
2019-02-15T19:18:39.143Z,7.80
2019-02-15T19:21:19.586Z,7.80
2019-02-15T19:24:00.068Z,7.80
2019-02-15T19:26:40.242Z,7.90
2019-02-15T19:29:19.971Z,7.90
2019-02-15T19:31:59.872Z,7.90
2019-02-15T19:34:39.994Z,7.90
2019-02-15T19:37:22.068Z,7.90
2019-02-15T19:40:03.296Z,7.80
2019-02-15T19:42:43.083Z,7.80
2019-02-15T19:45:23.190Z,7.70
2019-02-15T19:48:03.354Z,7.80
2019-02-15T19:50:43.351Z,7.80
2019-02-15T19:53:23.594Z,7.80
2019-02-15T19:56:03.564Z,7.80
2019-02-15T19:58:44.036Z,7.80
2019-02-15T20:04:03.925Z,7.70
2019-02-15T20:06:44.263Z,7.70
2019-02-15T20:09:24.277Z,7.60
2019-02-15T20:12:04.483Z,7.50
2019-02-15T20:14:44.619Z,7.30
2019-02-15T20:17:24.377Z,7.00
2019-02-15T20:20:04.631Z,7.00
2019-02-15T20:22:44.824Z,6.90
2019-02-15T20:25:24.695Z,6.80
2019-02-15T20:28:13.687Z,6.70
2019-02-15T20:30:47.627Z,6.70
2019-02-15T20:33:27.723Z,6.70
2019-02-15T20:36:07.776Z,6.70
2019-02-15T20:38:47.591Z,6.60
2019-02-15T20:41:27.952Z,6.70
2019-02-15T20:44:08.074Z,6.70
2019-02-15T20:46:48.053Z,6.70
2019-02-15T20:49:27.961Z,6.70
2019-02-15T20:52:07.616Z,6.70
2019-02-15T20:54:47.545Z,6.70
2019-02-15T20:57:27.647Z,6.70
2019-02-15T21:00:07.533Z,6.70
2019-02-15T21:02:47.412Z,6.70
2019-02-15T21:05:27.410Z,6.70
2019-02-15T21:08:07.630Z,6.60
2019-02-15T21:10:54.488Z,6.70
2019-02-15T21:13:29.738Z,6.70
2019-02-15T21:16:09.542Z,6.70
2019-02-15T21:18:53.235Z,6.70
2019-02-15T21:21:31.937Z,6.70
2019-02-15T21:24:18.831Z,6.60
2019-02-15T21:26:59.016Z,6.60
2019-02-15T21:29:39.202Z,6.60
2019-02-15T21:32:19.879Z,6.60
2019-02-15T21:34:59.807Z,6.60
2019-02-15T21:37:39.577Z,6.50
2019-02-15T21:40:19.441Z,6.40
2019-02-15T21:42:59.452Z,6.30
2019-02-15T21:45:39.051Z,6.30
2019-02-15T21:48:19.288Z,6.30
2019-02-15T21:50:59.466Z,6.20
2019-02-15T21:53:39.920Z,6.10
2019-02-15T21:56:20.131Z,6.10
2019-02-15T21:59:00.282Z,6.00
2019-02-15T22:01:39.890Z,5.90
2019-02-15T22:04:19.968Z,5.90
2019-02-15T22:07:00.072Z,5.80
2019-02-15T22:09:40.708Z,5.80
2019-02-15T22:12:20.547Z,5.70
2019-02-15T22:15:00.394Z,5.70
2019-02-15T22:17:40.272Z,5.70
2019-02-15T22:20:26.790Z,5.70
2019-02-15T22:23:07.057Z,5.70
2019-02-15T22:25:46.623Z,5.70
2019-02-15T22:28:26.343Z,5.70
2019-02-15T22:31:06.459Z,5.60
2019-02-15T22:33:46.390Z,5.60
2019-02-15T22:36:26.094Z,5.60
2019-02-15T22:39:06.034Z,5.60
2019-02-15T22:41:47.291Z,5.50
2019-02-15T22:44:27.376Z,5.40
2019-02-15T22:47:08.259Z,5.40
2019-02-15T22:49:47.536Z,5.40
2019-02-15T22:52:27.836Z,5.40
2019-02-15T22:55:07.897Z,5.40
2019-02-15T22:57:47.715Z,5.40
2019-02-15T23:00:29.923Z,5.50
2019-02-15T23:03:11.744Z,5.40
2019-02-15T23:05:52.073Z,5.30
2019-02-15T23:08:32.245Z,5.30
2019-02-15T23:11:12.653Z,5.20
2019-02-15T23:13:52.510Z,5.10
2019-02-15T23:16:32.943Z,5.20
2019-02-15T23:19:16.456Z,5.10
2019-02-15T23:21:55.963Z,5.10
2019-02-15T23:24:36.007Z,5.10
2019-02-15T23:27:15.751Z,5.10
2019-02-15T23:29:55.907Z,5.10
2019-02-15T23:32:35.640Z,5.10
2019-02-15T23:35:15.642Z,5.00
2019-02-15T23:37:55.849Z,5.00
2019-02-15T23:40:36.242Z,4.90
2019-02-15T23:43:16.295Z,4.90
2019-02-15T23:45:56.060Z,4.80
2019-02-15T23:48:36.749Z,4.80
2019-02-15T23:51:16.521Z,4.80
2019-02-15T23:53:56.205Z,4.70
2019-02-15T23:56:36.267Z,4.70
2019-02-15T23:59:16.828Z,4.70
